Palermo / Punta Raisi Airport LICJ

Flugplatz Daten

Name: Palermo / Punta Raisi Airport

Ident: LICJ

Lat: 38,17599869

Long: 13,0909996

Platzhöhe: 65 ft

IataCode: PMO

City: Palermo

Metar

2022/08/13 18:20
LICJ 131820Z 25009KT 9999 FEW030 28/24 Q1011

Taf

2022/08/13 18:00
TAF LICJ 131700Z 1318/1418 29010KT 9999 FEW030
BECMG 1410/1412 02012KT
Gewünschte Webcam nicht vorhanden? Dann fügen Sie eine hinzu. Sie wird dann so schnell wie möglich freigeschaltet
Url: Title: